createdAt,value
2022-09-28T00:03:11.238Z,7.61
2022-09-28T00:08:33.782Z,7.61
2022-09-28T00:13:58.390Z,7.58
2022-09-28T00:19:20.600Z,7.70
2022-09-28T00:24:42.721Z,7.68
2022-09-28T00:30:05.301Z,7.70
2022-09-28T00:35:27.621Z,7.69
2022-09-28T00:40:49.287Z,7.55
2022-09-28T00:46:20.450Z,7.70
2022-09-28T00:51:49.157Z,7.50
2022-09-28T00:57:16.011Z,7.23
2022-09-28T01:02:40.950Z,7.39
2022-09-28T01:08:04.059Z,7.47
2022-09-28T01:13:27.677Z,7.79
2022-09-28T01:19:19.770Z,7.36
2022-09-28T01:25:00.960Z,7.46
2022-09-28T01:30:27.449Z,7.37
2022-09-28T01:36:25.960Z,7.47
2022-09-28T01:41:52.890Z,7.39
2022-09-28T01:48:12.821Z,7.62
2022-09-28T01:53:57.102Z,7.74
2022-09-28T01:59:25.560Z,7.92
2022-09-28T02:05:01.503Z,7.96
2022-09-28T02:10:30.691Z,7.97
2022-09-28T02:16:01.976Z,8.03
2022-09-28T02:21:33.462Z,8.06
2022-09-28T02:27:02.038Z,8.10
2022-09-28T02:32:29.573Z,8.08
2022-09-28T02:37:52.260Z,8.08
2022-09-28T02:43:53.560Z,8.11
2022-09-28T02:49:27.719Z,8.16
2022-09-28T02:55:31.791Z,8.19
2022-09-28T03:01:15.449Z,8.20
2022-09-28T03:06:41.779Z,8.21
2022-09-28T03:12:14.769Z,8.21
2022-09-28T03:17:36.949Z,8.23
2022-09-28T03:28:41.076Z,8.28
2022-09-28T03:34:07.380Z,8.31
2022-09-28T03:39:29.240Z,8.09
2022-09-28T03:44:51.847Z,8.34
2022-09-28T03:50:14.619Z,8.19
2022-09-28T03:55:36.951Z,8.07
2022-09-28T04:01:05.181Z,8.12
2022-09-28T04:06:27.781Z,8.03
2022-09-28T04:12:03.476Z,8.37
2022-09-28T04:17:28.161Z,8.32
2022-09-28T04:22:51.138Z,8.22
2022-09-28T04:28:38.771Z,8.20
2022-09-28T04:34:01.552Z,8.46
2022-09-28T04:39:23.580Z,8.46
2022-09-28T04:44:51.659Z,8.29
2022-09-28T04:50:13.869Z,8.47
2022-09-28T04:55:58.039Z,8.47
2022-09-28T05:01:23.988Z,8.49
2022-09-28T05:07:06.849Z,8.51
2022-09-28T05:12:29.331Z,8.54
2022-09-28T05:17:53.611Z,8.56
2022-09-28T05:23:23.309Z,8.46
2022-09-28T05:28:49.371Z,8.53
2022-09-28T05:34:31.470Z,8.60
2022-09-28T05:39:53.660Z,8.60
2022-09-28T05:45:16.039Z,8.61
2022-09-28T05:50:40.470Z,8.62
2022-09-28T05:56:02.760Z,8.60
2022-09-28T06:01:26.634Z,8.50
2022-09-28T06:06:50.990Z,8.57
2022-09-28T06:12:13.450Z,8.57
2022-09-28T06:17:41.870Z,8.49
2022-09-28T06:23:26.760Z,8.57
2022-09-28T06:28:49.459Z,8.56
2022-09-28T06:34:13.175Z,8.52
2022-09-28T06:39:35.369Z,8.57
2022-09-28T06:44:58.861Z,8.55
2022-09-28T06:50:50.952Z,8.61
2022-09-28T06:56:42.137Z,8.58
2022-09-28T07:02:04.447Z,8.54
2022-09-28T07:07:45.319Z,8.63
2022-09-28T07:13:48.556Z,8.64
2022-09-28T07:19:15.111Z,8.52
2022-09-28T07:24:38.200Z,8.61
2022-09-28T07:30:35.434Z,8.65
2022-09-28T07:36:07.680Z,8.70
2022-09-28T07:41:33.132Z,8.74
2022-09-28T07:46:58.149Z,8.63
2022-09-28T07:52:37.680Z,8.81
2022-09-28T07:58:17.169Z,8.81
2022-09-28T08:03:49.253Z,8.58
2022-09-28T08:09:13.091Z,8.85
2022-09-28T08:14:53.870Z,8.80
2022-09-28T08:20:57.099Z,8.81
2022-09-28T08:26:25.633Z,8.71
2022-09-28T08:31:49.117Z,8.71
2022-09-28T08:37:37.217Z,8.72
2022-09-28T08:43:55.377Z,8.78
2022-09-28T08:49:42.383Z,8.78
2022-09-28T08:55:37.339Z,8.76
2022-09-28T09:01:03.426Z,8.75
2022-09-28T09:06:45.917Z,8.78
2022-09-28T09:12:39.642Z,8.82
2022-09-28T09:18:21.780Z,8.81
2022-09-28T09:24:05.248Z,8.78
2022-09-28T09:29:55.690Z,8.74
2022-09-28T09:35:53.650Z,8.70
2022-09-28T09:41:35.770Z,8.74
2022-09-28T09:47:32.228Z,8.76
2022-09-28T09:53:26.633Z,8.71
2022-09-28T10:05:12.040Z,8.66
2022-09-28T10:10:56.859Z,8.29
2022-09-28T10:16:30.568Z,8.09
2022-09-28T10:22:08.155Z,8.11
2022-09-28T10:27:36.377Z,8.26
2022-09-28T10:33:01.448Z,8.21
2022-09-28T10:38:33.559Z,8.21
2022-09-28T10:44:18.098Z,8.10
2022-09-28T10:49:57.477Z,8.61
2022-09-28T10:55:33.734Z,8.62
2022-09-28T11:01:10.020Z,8.50
2022-09-28T11:06:37.810Z,8.55
2022-09-28T11:12:06.659Z,8.40
2022-09-28T11:17:33.529Z,8.48
2022-09-28T11:23:01.219Z,8.41
2022-09-28T11:28:33.719Z,8.42
2022-09-28T11:34:17.254Z,8.31
2022-09-28T11:40:03.177Z,8.33
2022-09-28T11:46:35.553Z,8.23
2022-09-28T11:52:32.363Z,8.35
2022-09-28T11:58:09.689Z,7.98
2022-09-28T12:03:47.299Z,7.81
2022-09-28T12:09:40.609Z,8.21
2022-09-28T12:15:24.959Z,8.13
2022-09-28T12:21:15.199Z,7.89
2022-09-28T12:26:47.092Z,7.78
2022-09-28T12:32:22.282Z,7.87
2022-09-28T12:38:28.929Z,7.68
2022-09-28T12:44:35.689Z,8.17
2022-09-28T12:50:38.733Z,8.15
2022-09-28T12:56:29.817Z,8.16
2022-09-28T13:02:00.627Z,8.09
2022-09-28T13:07:40.987Z,8.03
2022-09-28T13:13:23.771Z,7.98
2022-09-28T13:19:07.751Z,7.96
2022-09-28T13:24:34.664Z,7.82
2022-09-28T13:30:01.887Z,7.85
2022-09-28T13:35:25.451Z,7.85
2022-09-28T13:41:06.150Z,7.83
2022-09-28T13:47:21.919Z,7.30
2022-09-28T13:53:16.278Z,7.70
2022-09-28T13:58:54.797Z,7.66
2022-09-28T14:04:22.740Z,7.46
2022-09-28T14:10:15.419Z,7.67
2022-09-28T14:15:53.639Z,7.63
2022-09-28T14:22:00.671Z,7.58
2022-09-28T14:27:49.734Z,7.49
2022-09-28T14:33:19.248Z,7.53
2022-09-28T14:39:10.460Z,6.99
2022-09-28T14:45:13.970Z,7.47
2022-09-28T14:50:38.430Z,7.14
2022-09-28T14:56:01.295Z,7.33
2022-09-28T15:01:25.797Z,7.26
2022-09-28T15:06:50.545Z,7.25
2022-09-28T15:12:19.081Z,7.25
2022-09-28T15:17:42.170Z,7.13
2022-09-28T15:23:04.191Z,7.21
2022-09-28T15:28:26.449Z,7.17
2022-09-28T15:34:07.738Z,7.03
2022-09-28T15:39:34.529Z,7.08
2022-09-28T15:45:41.099Z,7.02
2022-09-28T15:51:15.217Z,6.76
2022-09-28T15:57:06.090Z,6.93
2022-09-28T16:02:45.029Z,6.91
2022-09-28T16:08:33.299Z,6.92
2022-09-28T16:14:11.251Z,6.92
2022-09-28T16:19:43.047Z,6.85
2022-09-28T16:25:19.512Z,6.47
2022-09-28T16:31:25.077Z,6.50
2022-09-28T16:36:51.053Z,6.25
2022-09-28T16:42:29.291Z,6.80
2022-09-28T16:47:53.291Z,6.66
2022-09-28T16:53:35.851Z,6.68
2022-09-28T16:58:58.330Z,6.66
2022-09-28T17:04:24.522Z,6.71
2022-09-28T17:09:46.371Z,6.73
2022-09-28T17:15:08.462Z,6.71
2022-09-28T17:20:31.941Z,6.63
2022-09-28T17:25:56.178Z,6.67
2022-09-28T17:31:18.241Z,6.52
2022-09-28T17:36:44.509Z,6.61
2022-09-28T17:42:06.649Z,6.58
2022-09-28T17:47:33.530Z,6.55
2022-09-28T17:52:58.557Z,6.53
2022-09-28T17:58:23.220Z,6.51
2022-09-28T18:03:45.271Z,6.52
2022-09-28T18:09:07.119Z,6.48
2022-09-28T18:14:29.011Z,6.46
2022-09-28T18:19:50.972Z,6.47
2022-09-28T18:25:12.991Z,6.42
2022-09-28T18:30:38.631Z,6.38
2022-09-28T18:36:01.031Z,6.30
2022-09-28T18:41:22.940Z,6.35
2022-09-28T18:53:06.321Z,6.29
2022-09-28T18:58:29.003Z,6.28
2022-09-28T19:03:53.539Z,5.91
2022-09-28T19:09:21.216Z,5.94
2022-09-28T19:14:47.992Z,5.67
2022-09-28T19:20:22.562Z,6.01
2022-09-28T19:25:45.203Z,6.18
2022-09-28T19:31:22.930Z,5.68
2022-09-28T19:36:52.957Z,5.59
2022-09-28T19:42:15.617Z,5.74
2022-09-28T19:47:37.959Z,6.17
2022-09-28T19:53:02.182Z,6.16
2022-09-28T19:58:25.824Z,6.08
2022-09-28T20:03:47.819Z,6.06
2022-09-28T20:09:09.773Z,5.94
2022-09-28T20:14:36.317Z,5.93
2022-09-28T20:20:00.136Z,5.91
2022-09-28T20:25:22.141Z,5.82
2022-09-28T20:30:44.314Z,5.90
2022-09-28T20:36:10.860Z,5.87
2022-09-28T20:41:37.150Z,5.90
2022-09-28T20:47:30.902Z,5.75
2022-09-28T20:53:00.632Z,5.47
2022-09-28T20:58:23.551Z,5.54
2022-09-28T21:03:53.962Z,5.39
2022-09-28T21:09:16.640Z,5.81
2022-09-28T21:14:39.119Z,5.74
2022-09-28T21:20:02.681Z,5.35
2022-09-28T21:25:25.061Z,5.23
2022-09-28T21:30:47.879Z,5.34
2022-09-28T21:36:11.299Z,5.50
2022-09-28T21:41:33.854Z,5.82
2022-09-28T21:46:56.520Z,5.52
2022-09-28T21:52:18.860Z,5.38
2022-09-28T21:57:51.197Z,5.15
2022-09-28T22:03:24.640Z,5.26
2022-09-28T22:08:53.029Z,5.26
2022-09-28T22:14:36.297Z,5.28
2022-09-28T22:20:04.942Z,5.80
2022-09-28T22:25:31.917Z,5.37
2022-09-28T22:30:55.228Z,5.34
2022-09-28T22:36:31.417Z,5.16
2022-09-28T22:41:57.358Z,5.06
2022-09-28T22:47:29.188Z,5.61
2022-09-28T22:52:51.558Z,5.71
2022-09-28T22:58:14.037Z,5.74
2022-09-28T23:03:37.457Z,5.69
2022-09-28T23:08:59.499Z,5.68
2022-09-28T23:14:23.300Z,5.63
2022-09-28T23:19:45.588Z,5.63
2022-09-28T23:25:08.096Z,5.69
2022-09-28T23:30:30.680Z,5.64
2022-09-28T23:35:52.710Z,5.66
2022-09-28T23:41:14.511Z,5.70
2022-09-28T23:46:44.609Z,5.67
2022-09-28T23:52:06.880Z,5.50
2022-09-28T23:57:28.979Z,5.44
